createdAt,value
2023-02-06T00:01:35.445Z,4.90
2023-02-06T00:04:02.250Z,5.17
2023-02-06T00:06:29.136Z,5.67
2023-02-06T00:08:56.129Z,6.07
2023-02-06T00:11:23.219Z,5.67
2023-02-06T00:13:50.745Z,6.23
2023-02-06T00:16:31.776Z,7.17
2023-02-06T00:19:02.725Z,5.70
2023-02-06T00:21:30.333Z,6.87
2023-02-06T00:23:59.525Z,5.67
2023-02-06T00:26:26.923Z,6.97
2023-02-06T00:28:53.929Z,5.03
2023-02-06T00:31:21.106Z,5.83
2023-02-06T00:33:48.249Z,7.17
2023-02-06T00:36:15.086Z,5.87
2023-02-06T00:38:42.088Z,5.70
2023-02-06T00:41:08.846Z,5.97
2023-02-06T00:43:35.863Z,5.57
2023-02-06T00:46:02.720Z,5.60
2023-02-06T00:48:30.039Z,6.43
2023-02-06T00:50:56.874Z,6.10
2023-02-06T00:53:23.765Z,5.00
2023-02-06T00:55:50.546Z,5.43
2023-02-06T00:58:17.408Z,5.33
2023-02-06T01:00:44.961Z,6.43
2023-02-06T01:03:12.777Z,5.43
2023-02-06T01:05:39.658Z,6.90
2023-02-06T01:08:06.535Z,5.20
2023-02-06T01:10:33.596Z,6.10
2023-02-06T01:13:01.020Z,5.80
2023-02-06T01:15:28.085Z,6.13
2023-02-06T01:17:54.988Z,5.90
2023-02-06T01:20:23.159Z,6.40
2023-02-06T01:22:49.949Z,5.80
2023-02-06T01:25:17.051Z,4.97
2023-02-06T01:27:43.929Z,5.93
2023-02-06T01:30:11.477Z,6.83
2023-02-06T01:32:39.838Z,5.83
2023-02-06T01:35:08.235Z,6.20
2023-02-06T01:37:36.687Z,5.90
2023-02-06T01:40:05.672Z,6.23
2023-02-06T01:42:36.152Z,5.70
2023-02-06T01:45:21.988Z,5.73
2023-02-06T01:48:01.810Z,7.07
2023-02-06T01:50:29.712Z,8.30
2023-02-06T01:52:56.684Z,5.43
2023-02-06T01:55:23.502Z,6.73
2023-02-06T01:57:52.383Z,5.93
2023-02-06T02:00:19.907Z,7.20
2023-02-06T02:02:49.141Z,6.63
2023-02-06T02:05:18.521Z,6.53
2023-02-06T02:08:02.602Z,6.60
2023-02-06T02:10:31.802Z,6.57
2023-02-06T02:12:58.899Z,6.87
2023-02-06T02:15:39.638Z,6.70
2023-02-06T02:18:30.754Z,6.43
2023-02-06T02:21:18.752Z,9.70
2023-02-06T02:24:08.669Z,6.50
2023-02-06T02:26:54.055Z,6.57
2023-02-06T02:29:42.198Z,5.80
2023-02-06T02:32:26.203Z,6.63
2023-02-06T02:35:21.818Z,6.17
2023-02-06T02:38:10.603Z,6.97
2023-02-06T02:40:40.185Z,5.77
2023-02-06T02:43:30.505Z,6.47
2023-02-06T02:46:12.884Z,6.37
2023-02-06T02:48:43.401Z,5.77
2023-02-06T02:51:11.585Z,6.33
2023-02-06T02:53:41.450Z,6.07
2023-02-06T02:56:27.851Z,7.47
2023-02-06T02:59:03.108Z,6.13
2023-02-06T03:01:34.598Z,5.93
2023-02-06T03:04:07.093Z,5.63
2023-02-06T03:07:04.847Z,6.43
2023-02-06T03:10:12.356Z,5.60
2023-02-06T03:12:50.314Z,5.83
2023-02-06T03:15:48.571Z,6.13
2023-02-06T03:18:41.527Z,6.27
2023-02-06T03:21:14.856Z,6.10
2023-02-06T03:23:44.601Z,5.00
2023-02-06T03:26:15.421Z,6.03
2023-02-06T03:28:55.990Z,6.63
2023-02-06T03:31:53.239Z,6.87
2023-02-06T03:34:48.373Z,7.60
2023-02-06T03:37:15.342Z,6.03
2023-02-06T03:39:42.443Z,6.37
2023-02-06T03:42:12.814Z,7.10
2023-02-06T03:44:45.114Z,6.00
2023-02-06T03:47:13.300Z,6.23
2023-02-06T03:49:42.810Z,6.17
2023-02-06T03:52:15.085Z,6.83
2023-02-06T03:54:48.160Z,7.10
2023-02-06T03:57:19.653Z,6.13
2023-02-06T03:59:47.322Z,7.80
2023-02-06T04:02:15.861Z,7.60
2023-02-06T04:04:45.023Z,9.00
2023-02-06T04:07:29.750Z,8.63
2023-02-06T04:09:56.488Z,7.47
2023-02-06T04:12:23.727Z,8.87
2023-02-06T04:14:50.490Z,11.70
2023-02-06T04:17:36.073Z,9.57
2023-02-06T04:20:05.326Z,10.03
2023-02-06T04:22:31.932Z,11.13
2023-02-06T04:24:58.675Z,11.20
2023-02-06T04:27:25.684Z,13.10
2023-02-06T04:29:52.631Z,11.83
2023-02-06T04:32:19.233Z,12.03
2023-02-06T04:34:45.848Z,12.37
2023-02-06T04:37:12.562Z,13.13
2023-02-06T04:39:39.203Z,11.40
2023-02-06T04:42:06.955Z,10.17
2023-02-06T04:44:34.973Z,11.97
2023-02-06T04:47:03.114Z,12.37
2023-02-06T04:49:29.715Z,9.57
2023-02-06T04:51:56.517Z,12.03
2023-02-06T04:54:23.428Z,11.10
2023-02-06T04:56:50.195Z,10.87
2023-02-06T04:59:16.773Z,11.20
2023-02-06T05:01:43.633Z,11.07
2023-02-06T05:04:10.406Z,12.30
2023-02-06T05:06:37.169Z,13.10
2023-02-06T05:09:05.188Z,11.30
2023-02-06T05:11:32.014Z,10.63
2023-02-06T05:13:58.569Z,13.93
2023-02-06T05:16:25.193Z,10.23
2023-02-06T05:18:56.316Z,13.43
2023-02-06T05:21:24.099Z,9.63
2023-02-06T05:23:50.736Z,11.17
2023-02-06T05:26:17.470Z,9.13
2023-02-06T05:28:44.315Z,9.80
2023-02-06T05:31:11.342Z,9.43
2023-02-06T05:33:38.121Z,8.93
2023-02-06T05:36:07.137Z,8.70
2023-02-06T05:38:34.533Z,8.70
2023-02-06T05:41:02.404Z,9.77
2023-02-06T05:43:29.172Z,10.20
2023-02-06T05:45:55.797Z,9.50
2023-02-06T05:48:22.351Z,9.77
2023-02-06T05:50:49.690Z,11.03
2023-02-06T05:53:17.717Z,9.93
2023-02-06T05:55:44.794Z,10.03
2023-02-06T05:58:11.619Z,10.93
2023-02-06T06:00:38.596Z,10.00
2023-02-06T06:03:05.619Z,9.80
2023-02-06T06:05:35.517Z,9.77
2023-02-06T06:08:02.511Z,10.63
2023-02-06T06:10:29.430Z,9.83
2023-02-06T06:12:57.054Z,10.37
2023-02-06T06:15:24.139Z,12.90
2023-02-06T06:17:51.076Z,16.93
2023-02-06T06:20:17.819Z,15.63
2023-02-06T06:22:44.463Z,18.03
2023-02-06T06:25:11.238Z,16.63
2023-02-06T06:27:37.839Z,15.93
2023-02-06T06:30:04.986Z,15.10
2023-02-06T06:32:31.789Z,14.57
2023-02-06T06:34:59.956Z,13.43
2023-02-06T06:37:26.887Z,15.00
2023-02-06T06:39:53.615Z,14.70
2023-02-06T06:42:23.106Z,14.17
2023-02-06T06:44:50.376Z,15.10
2023-02-06T06:47:17.541Z,12.30
2023-02-06T06:49:44.710Z,12.00
2023-02-06T06:52:23.945Z,14.27
2023-02-06T06:54:52.423Z,13.23
2023-02-06T06:57:19.618Z,13.03
2023-02-06T06:59:46.329Z,12.97
2023-02-06T07:02:13.329Z,12.03
2023-02-06T07:04:40.264Z,11.30
2023-02-06T07:07:07.468Z,12.03
2023-02-06T07:10:03.369Z,11.93
2023-02-06T07:12:30.115Z,11.70
2023-02-06T07:14:56.942Z,12.50
2023-02-06T07:17:23.672Z,12.10
2023-02-06T07:19:52.486Z,11.13
2023-02-06T07:22:20.070Z,12.23
2023-02-06T07:24:46.670Z,10.93
2023-02-06T07:27:13.266Z,10.90
2023-02-06T07:29:39.960Z,12.07
2023-02-06T07:32:06.742Z,11.57
2023-02-06T07:34:33.855Z,11.57
2023-02-06T07:37:01.030Z,13.27
2023-02-06T07:39:27.984Z,13.07
2023-02-06T07:41:54.736Z,13.00
2023-02-06T07:44:21.558Z,14.00
2023-02-06T07:46:48.314Z,11.47
2023-02-06T07:49:15.631Z,11.87
2023-02-06T07:51:43.849Z,12.33
2023-02-06T07:54:11.051Z,13.77
2023-02-06T07:56:37.844Z,14.53
2023-02-06T07:59:05.144Z,14.60
2023-02-06T08:01:32.110Z,16.20
2023-02-06T08:03:58.731Z,17.60
2023-02-06T08:06:26.243Z,17.07
2023-02-06T08:08:55.575Z,16.00
2023-02-06T08:11:25.214Z,15.50
2023-02-06T08:13:51.968Z,14.13
2023-02-06T08:16:21.568Z,15.30
2023-02-06T08:18:48.475Z,14.27
2023-02-06T08:21:17.562Z,14.93
2023-02-06T08:23:44.654Z,13.83
2023-02-06T08:26:17.197Z,12.93
2023-02-06T08:28:45.935Z,16.90
2023-02-06T08:31:34.065Z,14.87
2023-02-06T08:34:01.377Z,14.87
2023-02-06T08:36:31.475Z,13.73
2023-02-06T08:38:58.764Z,11.93
2023-02-06T08:41:28.391Z,12.25
2023-02-06T08:43:57.206Z,12.13
2023-02-06T08:46:26.786Z,11.60
2023-02-06T08:49:00.760Z,11.50
2023-02-06T08:51:28.121Z,11.97
2023-02-06T08:53:59.938Z,11.20
2023-02-06T08:56:27.608Z,12.18
2023-02-06T08:58:54.312Z,10.95
2023-02-06T09:01:21.442Z,13.07
2023-02-06T09:03:48.694Z,11.13
2023-02-06T09:06:16.559Z,11.77
2023-02-06T09:08:43.142Z,12.10
2023-02-06T09:11:16.036Z,10.88
2023-02-06T09:13:44.410Z,9.50
2023-02-06T09:16:12.043Z,12.65
2023-02-06T09:18:39.382Z,10.68
2023-02-06T09:21:11.336Z,11.38
2023-02-06T09:23:45.145Z,10.40
2023-02-06T09:26:13.970Z,9.70
2023-02-06T09:28:40.669Z,10.40
2023-02-06T09:31:08.248Z,9.05
2023-02-06T09:33:36.833Z,8.48
2023-02-06T09:36:11.482Z,9.35
2023-02-06T09:38:47.591Z,9.35
2023-02-06T09:41:26.393Z,9.38
2023-02-06T09:43:57.763Z,9.60
2023-02-06T09:46:28.942Z,8.75
2023-02-06T09:48:58.748Z,8.63
2023-02-06T09:51:40.101Z,9.38
2023-02-06T09:54:26.877Z,7.70
2023-02-06T09:57:01.852Z,8.50
2023-02-06T09:59:36.250Z,8.45
2023-02-06T10:02:21.807Z,7.22
2023-02-06T10:04:57.340Z,7.38
2023-02-06T10:07:37.436Z,8.15
2023-02-06T10:10:19.116Z,6.50
2023-02-06T10:12:58.748Z,10.00
2023-02-06T10:15:45.113Z,8.57
2023-02-06T10:18:34.728Z,8.70
2023-02-06T10:21:26.761Z,6.32
2023-02-06T10:24:05.296Z,7.72
2023-02-06T10:26:37.678Z,6.80
2023-02-06T10:29:06.136Z,6.53
2023-02-06T10:31:55.509Z,5.65
2023-02-06T10:34:35.699Z,5.45
2023-02-06T10:37:33.082Z,6.13
2023-02-06T10:40:19.474Z,5.20
2023-02-06T10:43:12.642Z,6.72
2023-02-06T10:45:48.311Z,6.57
2023-02-06T10:48:33.998Z,6.72
2023-02-06T10:51:32.201Z,6.18
2023-02-06T10:54:02.947Z,5.82
2023-02-06T10:56:35.937Z,6.10
2023-02-06T10:59:10.599Z,7.20
2023-02-06T11:01:39.792Z,6.80
2023-02-06T11:04:18.824Z,7.43
2023-02-06T11:06:48.333Z,6.18
2023-02-06T11:09:15.724Z,6.22
2023-02-06T11:11:48.559Z,5.95
2023-02-06T11:14:27.302Z,5.53
2023-02-06T11:16:54.544Z,6.03
2023-02-06T11:19:36.039Z,6.28
2023-02-06T11:22:17.071Z,5.70
2023-02-06T11:25:00.392Z,5.60
2023-02-06T11:27:27.832Z,5.47
2023-02-06T11:29:54.698Z,5.90
2023-02-06T11:32:40.703Z,6.10
2023-02-06T11:35:24.496Z,5.75
2023-02-06T11:38:05.370Z,5.28
2023-02-06T11:40:32.257Z,5.93
2023-02-06T11:43:20.799Z,6.25
2023-02-06T11:45:49.453Z,6.53
2023-02-06T11:48:38.773Z,5.65
2023-02-06T11:51:08.084Z,5.50
2023-02-06T11:53:37.495Z,5.57
2023-02-06T11:56:20.707Z,5.30
2023-02-06T11:59:00.664Z,6.20
2023-02-06T12:01:27.282Z,5.85
2023-02-06T12:03:58.062Z,5.80
2023-02-06T12:06:40.299Z,5.25
2023-02-06T12:09:12.772Z,5.13
2023-02-06T12:11:49.350Z,6.13
2023-02-06T12:14:30.298Z,5.22
2023-02-06T12:17:00.532Z,5.63
2023-02-06T12:19:33.715Z,4.60
2023-02-06T12:22:23.309Z,4.45
2023-02-06T12:24:53.652Z,4.63
2023-02-06T12:27:31.982Z,4.20
2023-02-06T12:30:22.834Z,3.45
2023-02-06T12:32:55.214Z,3.47
2023-02-06T12:36:23.679Z,2.70
2023-02-06T12:39:11.666Z,3.13
2023-02-06T12:42:17.111Z,3.47
2023-02-06T12:44:59.277Z,2.72
2023-02-06T12:47:43.428Z,3.17
2023-02-06T12:50:23.432Z,2.90
2023-02-06T12:53:18.304Z,3.35
2023-02-06T12:55:55.778Z,3.40
2023-02-06T12:58:32.362Z,2.83
2023-02-06T13:01:30.015Z,3.53
2023-02-06T13:04:04.316Z,3.42
2023-02-06T13:06:53.027Z,3.28
2023-02-06T13:09:34.296Z,3.10
2023-02-06T13:12:20.828Z,3.03
2023-02-06T13:14:51.358Z,3.25
2023-02-06T13:17:26.590Z,2.60
2023-02-06T13:20:01.040Z,2.70
2023-02-06T13:22:49.402Z,3.50
2023-02-06T13:25:28.622Z,3.40
2023-02-06T13:28:21.763Z,3.30
2023-02-06T13:30:59.406Z,3.20
2023-02-06T13:33:38.011Z,3.10
2023-02-06T13:36:15.689Z,3.53
2023-02-06T13:38:43.540Z,2.75
2023-02-06T13:41:14.021Z,3.88
2023-02-06T13:44:06.496Z,3.40
2023-02-06T13:46:51.768Z,3.05
2023-02-06T13:49:56.294Z,2.83
2023-02-06T13:52:44.079Z,2.30
2023-02-06T13:55:35.308Z,2.47
2023-02-06T13:58:17.047Z,3.08
2023-02-06T14:00:50.578Z,2.30
2023-02-06T14:03:29.872Z,2.03
2023-02-06T14:06:16.904Z,3.22
2023-02-06T14:08:52.347Z,2.42
2023-02-06T14:12:00.455Z,3.00
2023-02-06T14:14:49.424Z,2.95
2023-02-06T14:17:35.010Z,3.20
2023-02-06T14:20:14.445Z,3.45
2023-02-06T14:23:18.690Z,2.70
2023-02-06T14:25:57.643Z,2.88
2023-02-06T14:28:33.343Z,3.33
2023-02-06T14:31:10.890Z,3.33
2023-02-06T14:33:49.655Z,2.72
2023-02-06T14:36:39.204Z,2.97
2023-02-06T14:39:43.856Z,3.10
2023-02-06T14:42:24.454Z,3.47
2023-02-06T14:44:59.076Z,2.60
2023-02-06T14:47:29.702Z,2.70
2023-02-06T14:49:59.608Z,2.63
2023-02-06T14:52:31.494Z,2.92
2023-02-06T14:54:58.097Z,3.20
2023-02-06T14:57:31.015Z,2.42
2023-02-06T15:00:06.284Z,2.90
2023-02-06T15:02:37.356Z,3.35
2023-02-06T15:05:05.304Z,3.17
2023-02-06T15:07:34.592Z,3.58
2023-02-06T15:10:13.229Z,3.22
2023-02-06T15:12:40.065Z,3.13
2023-02-06T15:15:22.423Z,2.65
2023-02-06T15:18:06.789Z,3.60
2023-02-06T15:20:42.457Z,3.10
2023-02-06T15:23:18.835Z,2.85
2023-02-06T15:26:10.174Z,3.00
2023-02-06T15:28:38.065Z,2.70
2023-02-06T15:31:15.020Z,3.20
2023-02-06T15:33:41.720Z,3.05
2023-02-06T15:36:20.096Z,3.08
2023-02-06T15:38:46.798Z,3.03
2023-02-06T15:41:13.598Z,3.10
2023-02-06T15:43:41.589Z,2.80
2023-02-06T15:46:08.568Z,3.30
2023-02-06T15:48:57.602Z,2.42
2023-02-06T15:51:25.774Z,2.70
2023-02-06T15:54:24.120Z,3.95
2023-02-06T15:56:56.533Z,3.05
2023-02-06T15:59:25.584Z,2.85
2023-02-06T16:01:55.381Z,3.50
2023-02-06T16:04:30.956Z,6.40
2023-02-06T16:07:18.462Z,6.20
2023-02-06T16:09:56.838Z,6.43
2023-02-06T16:12:23.875Z,4.28
2023-02-06T16:14:57.469Z,3.95
2023-02-06T16:17:26.579Z,4.32
2023-02-06T16:20:02.180Z,3.97
2023-02-06T16:22:33.484Z,4.15
2023-02-06T16:25:29.130Z,4.22
2023-02-06T16:27:56.480Z,4.55
2023-02-06T16:30:31.135Z,4.32
2023-02-06T16:33:00.443Z,4.07
2023-02-06T16:35:27.369Z,4.78
2023-02-06T16:37:54.510Z,4.13
2023-02-06T16:40:21.493Z,4.20
2023-02-06T16:42:48.297Z,4.67
2023-02-06T16:45:24.562Z,4.43
2023-02-06T16:47:51.260Z,4.90
2023-02-06T16:50:18.426Z,5.97
2023-02-06T16:52:54.001Z,5.17
2023-02-06T16:55:24.644Z,6.03
2023-02-06T16:57:54.704Z,5.57
2023-02-06T17:00:33.101Z,6.70
2023-02-06T17:03:02.835Z,6.20
2023-02-06T17:05:29.716Z,6.30
2023-02-06T17:07:56.484Z,6.40
2023-02-06T17:10:26.104Z,5.67
2023-02-06T17:12:53.620Z,6.33
2023-02-06T17:15:20.600Z,6.30
2023-02-06T17:17:47.360Z,6.00
2023-02-06T17:20:31.806Z,6.67
2023-02-06T17:22:58.603Z,5.60
2023-02-06T17:25:25.588Z,6.10
2023-02-06T17:27:53.334Z,6.10
2023-02-06T17:30:23.074Z,6.07
2023-02-06T17:32:50.058Z,7.20
2023-02-06T17:35:17.531Z,6.93
2023-02-06T17:37:44.452Z,6.77
2023-02-06T17:40:19.422Z,7.30
2023-02-06T17:42:46.252Z,7.70
2023-02-06T17:45:13.018Z,7.97
2023-02-06T17:47:39.709Z,8.17
2023-02-06T17:50:06.987Z,14.30
2023-02-06T17:52:33.651Z,14.63
2023-02-06T17:55:00.522Z,12.93
2023-02-06T17:57:27.280Z,11.90
2023-02-06T17:59:54.051Z,13.00
2023-02-06T18:02:20.753Z,10.77
2023-02-06T18:04:50.874Z,11.53
2023-02-06T18:07:17.574Z,12.90
2023-02-06T18:09:44.410Z,13.27
2023-02-06T18:12:11.213Z,12.67
2023-02-06T18:14:39.637Z,15.60
2023-02-06T18:17:07.038Z,14.53
2023-02-06T18:19:42.157Z,13.10
2023-02-06T18:22:11.138Z,14.00
2023-02-06T18:24:38.257Z,13.67
2023-02-06T18:27:06.106Z,15.20
2023-02-06T18:29:48.512Z,15.93
2023-02-06T18:32:18.380Z,16.30
2023-02-06T18:34:45.652Z,16.03
2023-02-06T18:37:12.467Z,15.20
2023-02-06T18:39:39.504Z,13.40
2023-02-06T18:42:24.828Z,13.37
2023-02-06T18:44:51.886Z,12.67
2023-02-06T18:47:19.690Z,13.50
2023-02-06T18:49:46.404Z,13.20
2023-02-06T18:52:13.096Z,12.57
2023-02-06T18:54:39.859Z,12.83
2023-02-06T18:57:07.048Z,12.67
2023-02-06T18:59:34.438Z,13.00
2023-02-06T19:02:01.417Z,12.43
2023-02-06T19:04:28.252Z,12.70
2023-02-06T19:06:55.046Z,12.87
2023-02-06T19:09:21.759Z,12.47
2023-02-06T19:11:48.654Z,12.93
2023-02-06T19:14:17.084Z,14.60
2023-02-06T19:16:48.974Z,14.90
2023-02-06T19:19:16.030Z,13.70
2023-02-06T19:21:44.168Z,15.30
2023-02-06T19:24:13.120Z,14.67
2023-02-06T19:26:40.441Z,15.27
2023-02-06T19:29:07.367Z,16.53
2023-02-06T19:31:35.952Z,16.03
2023-02-06T19:34:02.740Z,15.90
2023-02-06T19:36:32.800Z,16.60
2023-02-06T19:39:02.469Z,17.53
2023-02-06T19:41:31.100Z,16.67
2023-02-06T19:44:00.773Z,16.00
2023-02-06T19:46:31.282Z,17.27
2023-02-06T19:48:58.580Z,17.30
2023-02-06T19:51:31.551Z,18.97
2023-02-06T19:53:59.494Z,21.10
2023-02-06T19:56:26.315Z,22.63
2023-02-06T19:58:58.718Z,21.50
2023-02-06T20:01:26.640Z,25.73
2023-02-06T20:03:53.709Z,21.63
2023-02-06T20:06:20.496Z,24.00
2023-02-06T20:08:47.572Z,16.93
2023-02-06T20:11:16.955Z,16.80
2023-02-06T20:13:46.003Z,26.20
2023-02-06T20:16:18.392Z,28.17
2023-02-06T20:18:45.241Z,27.43
2023-02-06T20:21:52.850Z,25.73
2023-02-06T20:24:22.507Z,14.97
2023-02-06T20:26:55.363Z,15.43
2023-02-06T20:29:23.882Z,15.60
2023-02-06T20:31:51.716Z,16.47
2023-02-06T20:34:18.674Z,18.47
2023-02-06T20:36:46.336Z,19.10
2023-02-06T20:39:14.275Z,18.53
2023-02-06T20:41:42.126Z,13.57
2023-02-06T20:44:11.485Z,14.03
2023-02-06T20:46:39.543Z,15.90
2023-02-06T20:49:11.290Z,16.60
2023-02-06T20:51:37.996Z,13.17
2023-02-06T20:54:05.231Z,13.07
2023-02-06T20:56:32.231Z,14.03
2023-02-06T20:59:02.374Z,16.07
2023-02-06T21:01:30.792Z,16.17
2023-02-06T21:04:06.370Z,14.80
2023-02-06T21:06:34.810Z,15.23
2023-02-06T21:09:03.172Z,15.40
2023-02-06T21:11:32.193Z,16.67
2023-02-06T21:14:04.584Z,18.47
2023-02-06T21:16:32.279Z,17.50
2023-02-06T21:19:00.122Z,17.20
2023-02-06T21:21:27.061Z,18.60
2023-02-06T21:23:55.875Z,18.00
2023-02-06T21:26:23.750Z,19.40
2023-02-06T21:31:44.233Z,20.90
2023-02-06T21:34:17.754Z,19.87
2023-02-06T21:36:45.372Z,20.30
2023-02-06T21:39:17.187Z,23.00
2023-02-06T21:41:45.949Z,21.97
2023-02-06T21:44:12.887Z,21.27
2023-02-06T21:46:40.258Z,22.27
2023-02-06T21:49:09.138Z,20.63
2023-02-06T21:51:36.362Z,19.23
2023-02-06T21:54:03.467Z,20.40
2023-02-06T21:56:34.533Z,20.03
2023-02-06T21:59:01.114Z,21.33
2023-02-06T22:01:30.095Z,21.10
2023-02-06T22:03:57.961Z,20.50
2023-02-06T22:06:25.119Z,20.77
2023-02-06T22:08:53.464Z,20.37
2023-02-06T22:11:28.761Z,21.50
2023-02-06T22:14:00.937Z,20.90
2023-02-06T22:16:30.127Z,20.93
2023-02-06T22:18:57.198Z,21.43
2023-02-06T22:21:26.224Z,21.23
2023-02-06T22:23:56.739Z,20.70
2023-02-06T22:26:23.808Z,22.57
2023-02-06T22:28:51.084Z,22.43
2023-02-06T22:31:23.560Z,22.90
2023-02-06T22:33:51.483Z,24.90
2023-02-06T22:36:24.054Z,25.03
2023-02-06T22:39:06.605Z,24.10
2023-02-06T22:41:34.907Z,24.13
2023-02-06T22:44:01.604Z,24.70
2023-02-06T22:46:31.010Z,24.87
2023-02-06T22:48:58.428Z,25.73
2023-02-06T22:51:25.504Z,26.23
2023-02-06T22:53:52.473Z,27.40
2023-02-06T22:56:29.461Z,25.07
2023-02-06T22:59:06.543Z,26.37
2023-02-06T23:01:41.928Z,26.07
2023-02-06T23:04:12.827Z,27.17
2023-02-06T23:06:40.022Z,27.23
2023-02-06T23:09:08.206Z,28.53
2023-02-06T23:11:35.579Z,28.73
2023-02-06T23:14:03.930Z,28.23
2023-02-06T23:16:32.470Z,29.23
2023-02-06T23:19:01.918Z,29.40
2023-02-06T23:21:28.489Z,27.70
2023-02-06T23:23:56.881Z,28.70
2023-02-06T23:26:23.846Z,27.20
2023-02-06T23:28:50.442Z,27.97
2023-02-06T23:31:17.107Z,28.20
2023-02-06T23:33:44.000Z,27.77
2023-02-06T23:36:13.321Z,27.80
2023-02-06T23:38:40.355Z,26.93
2023-02-06T23:41:12.529Z,24.63
2023-02-06T23:43:39.797Z,26.43
2023-02-06T23:46:08.158Z,24.90
2023-02-06T23:48:36.901Z,26.00
2023-02-06T23:51:04.559Z,25.63
2023-02-06T23:53:31.374Z,24.93
2023-02-06T23:55:58.001Z,25.20
2023-02-06T23:58:25.831Z,26.17
